Time;durP1;ratioP1;P1;durP2;ratioP2;P2;SDS_P1;SDS_P2;PMS_P1;PMS_P2;Temp;Humidity;BMP_temperature;BMP_pressure;BME280_temperature;BME280_humidity;BME280_pressure;Samples;Min_cycle;Max_cycle;Signal;HPM_P1;HPM_P2
2022/01/20 00:01:43;;;;;;;24.55;18.67;;;;;;;0.04;100.00;96691.41;5012457;28;19914;-62
2022/01/20 00:04:28;;;;;;;27.40;19.17;;;;;;;-0.01;100.00;96693.28;5011010;28;20486;-62
2022/01/20 00:28:20;;;;;;;15.98;13.07;;;;;;;0.02;100.00;96682.00;5012290;28;20028;-62
2022/01/20 00:34:09;;;;;;;19.08;14.60;;;;;;;-0.04;100.00;96680.44;4976852;28;20033;-62
2022/01/20 00:39:18;;;;;;;39.15;25.38;;;;;;;0.02;100.00;96682.00;4993651;28;19956;-62
2022/01/20 00:41:43;;;;;;;44.08;30.05;;;;;;;0.02;100.00;96694.94;5012984;28;20114;-63
2022/01/20 00:44:09;;;;;;;53.97;33.70;;;;;;;0.02;100.00;96677.66;5011952;28;20497;-62
2022/01/20 00:46:34;;;;;;;48.05;30.67;;;;;;;0.04;100.00;96691.41;5011394;28;20084;-62
2022/01/20 00:48:59;;;;;;;49.15;32.28;;;;;;;0.06;100.00;96692.19;5012736;28;20034;-62
2022/01/20 00:51:25;;;;;;;45.95;31.02;;;;;;;0.07;100.00;96693.03;5012051;28;20042;-62
2022/01/20 00:53:51;;;;;;;53.33;33.53;;;;;;;0.03;100.00;96704.41;5012779;28;20026;-62
2022/01/20 00:56:16;;;;;;;47.67;31.27;;;;;;;-0.01;100.00;96701.06;5012117;28;20045;-62
2022/01/20 00:58:42;;;;;;;35.70;25.90;;;;;;;0.11;100.00;96708.41;5012833;28;20482;-62
2022/01/20 01:01:07;;;;;;;34.70;22.55;;;;;;;0.10;100.00;96706.72;5012936;28;20030;-62
2022/01/20 01:03:33;;;;;;;30.52;20.33;;;;;;;0.03;100.00;96718.19;5011713;28;20557;-62
2022/01/20 01:06:56;;;;;;;33.58;20.92;;;;;;;0.01;100.00;96719.13;5010636;28;20041;-62
2022/01/20 01:08:44;;;;;;;28.95;19.23;;;;;;;0.02;100.00;96723.41;5004829;28;20073;-62
2022/01/20 01:11:09;;;;;;;27.40;18.88;;;;;;;0.03;100.00;96722.53;5010142;28;20458;-62
2022/01/20 01:13:34;;;;;;;25.08;16.75;;;;;;;0.01;100.00;96720.00;5012266;28;20021;-62
2022/01/20 01:16:00;;;;;;;23.55;15.70;;;;;;;0.02;100.00;96713.91;5012483;28;20028;-62
2022/01/20 01:21:15;;;;;;;34.80;22.23;;;;;;;0.06;100.00;96725.00;5005811;28;20057;-62
2022/01/20 01:23:44;;;;;;;16.40;12.82;;;;;;;0.08;100.00;96725.78;5011367;28;20646;-62
2022/01/20 01:26:14;;;;;;;16.25;12.20;;;;;;;0.09;100.00;96724.91;5009965;28;20121;-62
2022/01/20 01:28:40;;;;;;;20.77;16.00;;;;;;;0.05;100.00;96718.13;5011843;28;20480;-62
2022/01/20 01:33:40;;;;;;;26.27;16.95;;;;;;;0.04;100.00;96719.03;5011913;28;20084;-62
2022/01/20 01:36:08;;;;;;;30.45;17.90;;;;;;;-0.04;100.00;96714.97;5012031;28;20036;-62
2022/01/20 01:38:38;;;;;;;19.73;13.77;;;;;;;-0.09;100.00;96706.50;5009646;28;20032;-62
2022/01/20 01:41:07;;;;;;;15.50;11.60;;;;;;;-0.08;100.00;96704.75;5011846;28;20017;-62
2022/01/20 01:43:33;;;;;;;18.60;14.35;;;;;;;0.07;100.00;96698.22;5011734;28;20042;-62
2022/01/20 01:46:00;;;;;;;20.25;13.98;;;;;;;0.16;100.00;96708.25;5011100;28;20236;-62
2022/01/20 01:48:26;;;;;;;18.95;14.38;;;;;;;0.11;100.00;96695.47;5011748;28;20030;-62
2022/01/20 01:50:52;;;;;;;18.90;14.65;;;;;;;0.11;100.00;96697.19;5011895;28;20037;-62
2022/01/20 01:53:17;;;;;;;18.52;14.00;;;;;;;0.05;100.00;96693.09;5012229;28;20073;-62
2022/01/20 01:55:43;;;;;;;12.20;9.70;;;;;;;0.06;100.00;96689.59;5011641;28;20022;-62
2022/01/20 01:58:09;;;;;;;17.05;12.27;;;;;;;0.13;100.00;96685.91;5011697;28;20026;-62
2022/01/20 02:00:35;;;;;;;17.80;12.93;;;;;;;0.06;100.00;96678.38;5011619;28;20048;-62
2022/01/20 02:03:00;;;;;;;16.70;12.52;;;;;;;0.08;100.00;96674.84;5011442;28;20478;-62
2022/01/20 02:05:26;;;;;;;11.75;10.45;;;;;;;0.05;100.00;96672.38;5011307;28;20056;-62
2022/01/20 02:18:58;;;;;;;10.68;8.63;;;;;;;-0.03;100.00;96651.94;5011005;28;20147;-62
2022/01/20 02:21:23;;;;;;;13.60;11.00;;;;;;;-0.08;100.00;96661.59;5011356;28;20026;-62
2022/01/20 02:23:49;;;;;;;11.65;10.10;;;;;;;-0.14;100.00;96651.44;5011098;28;20038;-62
2022/01/20 02:26:14;;;;;;;10.85;9.55;;;;;;;-0.18;100.00;96647.25;5011325;28;20026;-61
2022/01/20 02:28:40;;;;;;;10.07;9.00;;;;;;;-0.25;100.00;96653.56;5011486;28;20032;-62
2022/01/20 02:31:06;;;;;;;10.80;9.38;;;;;;;-0.27;100.00;96655.34;5010010;28;20597;-62
2022/01/20 02:33:32;;;;;;;10.90;8.90;;;;;;;-0.32;100.00;96655.50;5011179;28;20033;-62
2022/01/20 02:36:04;;;;;;;10.43;8.95;;;;;;;-0.39;100.00;96660.03;5006428;28;20034;-62
2022/01/20 02:38:44;;;;;;;11.35;10.13;;;;;;;-0.15;99.99;96663.56;5011128;28;20125;-61
2022/01/20 02:46:39;;;;;;;14.23;12.15;;;;;;;-0.31;100.00;96663.22;5011168;28;20055;-62
2022/01/20 02:49:07;;;;;;;12.32;10.68;;;;;;;-0.35;100.00;96676.31;5010973;28;20026;-62
2022/01/20 02:51:33;;;;;;;13.05;10.90;;;;;;;-0.36;100.00;96682.38;5010938;28;20034;-62
2022/01/20 02:53:59;;;;;;;11.32;10.13;;;;;;;-0.38;100.00;96685.00;5010951;28;20022;-62
2022/01/20 02:56:25;;;;;;;10.73;9.68;;;;;;;-0.24;100.00;96668.19;5011012;28;20125;-62
2022/01/20 02:58:50;;;;;;;10.80;9.48;;;;;;;-0.34;100.00;96662.47;5011001;28;20053;-62
2022/01/20 03:01:16;;;;;;;10.95;9.90;;;;;;;-0.48;100.00;96660.34;5010951;28;20108;-62
2022/01/20 03:03:41;;;;;;;10.82;9.80;;;;;;;-0.58;100.00;96663.22;5010120;28;20543;-62
2022/01/20 03:06:07;;;;;;;10.35;9.35;;;;;;;-0.61;100.00;96663.31;5010911;28;20026;-62
2022/01/20 03:08:34;;;;;;;9.70;8.73;;;;;;;-0.59;100.00;96660.69;5010840;28;20105;-62
2022/01/20 03:10:59;;;;;;;10.80;9.27;;;;;;;-0.62;100.00;96656.47;5010775;28;20113;-62
2022/01/20 03:13:25;;;;;;;9.85;8.35;;;;;;;-0.58;100.00;96654.63;5010022;28;20105;-62
2022/01/20 03:15:51;;;;;;;9.50;8.57;;;;;;;-0.55;100.00;96661.41;5010577;28;20026;-62
2022/01/20 03:18:16;;;;;;;20.20;11.70;;;;;;;-0.53;100.00;96655.31;5010852;28;20042;-62
2022/01/20 03:20:42;;;;;;;51.20;21.25;;;;;;;-0.50;100.00;96656.97;5014846;28;20104;-62
2022/01/20 03:23:07;;;;;;;14.52;11.85;;;;;;;-0.52;99.93;96651.00;5014429;28;20097;-62
2022/01/20 03:25:32;;;;;;;22.30;13.30;;;;;;;-0.52;100.00;96645.81;5014470;28;20014;-62
2022/01/20 03:27:59;;;;;;;19.75;12.32;;;;;;;-0.53;100.00;96652.72;5014304;28;20041;-62
2022/01/20 03:30:26;;;;;;;16.58;12.63;;;;;;;-0.57;100.00;96645.97;5013608;28;20053;-62
2022/01/20 03:32:52;;;;;;;16.90;11.95;;;;;;;-0.61;100.00;96652.13;5014388;28;20100;-62
2022/01/20 03:35:18;;;;;;;18.70;14.07;;;;;;;-0.66;100.00;96649.69;5014118;28;20537;-62
2022/01/20 03:37:43;;;;;;;33.20;21.02;;;;;;;-0.67;100.00;96649.72;5014171;28;20073;-61
2022/01/20 03:40:10;;;;;;;29.35;20.20;;;;;;;-0.73;100.00;96651.63;5014201;28;20018;-61
2022/01/20 03:42:36;;;;;;;15.35;11.00;;;;;;;-0.74;100.00;96643.94;5014098;28;20409;-62
2022/01/20 03:45:03;;;;;;;24.23;14.07;;;;;;;-0.70;100.00;96653.28;5013878;28;20112;-62
2022/01/20 03:47:28;;;;;;;20.08;13.55;;;;;;;-0.66;100.00;96654.03;5014030;28;20455;-62
2022/01/20 03:52:27;;;;;;;17.95;11.82;;;;;;;-0.49;97.82;96641.38;5014087;28;20102;-62
2022/01/20 03:54:52;;;;;;;11.80;9.55;;;;;;;-0.37;95.20;96641.88;5013896;28;20473;-62
2022/01/20 03:57:18;;;;;;;9.02;8.23;;;;;;;-0.05;92.69;96643.38;5013834;28;20103;-62
2022/01/20 03:59:44;;;;;;;17.10;11.95;;;;;;;-0.13;92.00;96634.19;5013988;28;20030;-62
2022/01/20 04:02:10;;;;;;;9.70;8.77;;;;;;;-0.05;92.10;96645.09;5013843;28;20076;-62
2022/01/20 04:04:36;;;;;;;8.70;7.90;;;;;;;-0.01;91.01;96636.31;5013617;28;20029;-62
2022/01/20 04:07:01;;;;;;;18.77;11.30;;;;;;;0.08;89.56;96629.97;5013811;28;20025;-62
2022/01/20 04:09:27;;;;;;;14.30;10.00;;;;;;;0.18;88.52;96633.09;5013585;28;20068;-62
2022/01/20 04:11:52;;;;;;;8.88;7.97;;;;;;;0.22;87.63;96638.09;5013976;28;20030;-62
2022/01/20 04:14:19;;;;;;;9.77;7.68;;;;;;;0.22;88.32;96640.69;5013506;28;20033;-62
2022/01/20 04:19:26;;;;;;;12.20;9.70;;;;;;;0.20;88.76;96660.63;5012072;28;20116;-62
2022/01/20 04:21:51;;;;;;;17.02;10.85;;;;;;;0.19;88.23;96658.09;5013626;28;20048;-62
2022/01/20 04:24:17;;;;;;;9.15;8.25;;;;;;;0.28;87.45;96658.59;5013304;28;20481;-61
2022/01/20 04:26:44;;;;;;;8.27;7.47;;;;;;;0.31;86.44;96667.16;5013303;28;20081;-62
2022/01/20 04:29:13;;;;;;;10.10;8.40;;;;;;;0.37;85.92;96667.78;5013400;28;20521;-62
2022/01/20 04:31:41;;;;;;;11.23;9.25;;;;;;;0.38;86.35;96663.47;5012315;28;20080;-62
2022/01/20 04:34:07;;;;;;;10.27;9.30;;;;;;;0.34;86.27;96657.53;5011591;28;20033;-62
2022/01/20 04:36:37;;;;;;;12.80;9.75;;;;;;;0.35;86.34;96664.41;5013206;28;20026;-62
2022/01/20 04:39:05;;;;;;;14.43;9.73;;;;;;;0.36;86.21;96675.63;5009428;28;20127;-62
2022/01/20 04:41:30;;;;;;;14.45;9.98;;;;;;;0.32;85.93;96666.25;5013099;28;20056;-62
2022/01/20 04:43:57;;;;;;;26.50;19.92;;;;;;;0.27;86.06;96667.28;5013172;28;20034;-62
2022/01/20 04:47:16;;;;;;;11.23;8.45;;;;;;;0.33;86.72;96660.19;5012764;28;20036;-62
2022/01/20 04:57:22;;;;;;;34.70;22.58;;;;;;;0.24;88.70;96672.56;5013021;28;20563;-62
2022/01/20 04:59:51;;;;;;;24.95;17.30;;;;;;;0.39;88.03;96683.31;5012794;28;20088;-62
2022/01/20 05:02:17;;;;;;;32.30;19.15;;;;;;;0.26;88.81;96695.84;5003753;28;20421;-62
2022/01/20 05:04:43;;;;;;;29.10;19.95;;;;;;;0.20;90.07;96686.53;5012533;28;20092;-62
2022/01/20 05:07:10;;;;;;;25.23;17.90;;;;;;;0.13;90.66;96675.53;5012905;28;20493;-62
2022/01/20 05:09:36;;;;;;;33.50;22.48;;;;;;;0.17;90.11;96681.47;5012624;28;20036;-62
2022/01/20 05:12:11;;;;;;;32.75;21.75;;;;;;;0.16;90.28;96679.78;5012629;28;20029;-62
2022/01/20 05:14:37;;;;;;;29.05;20.63;;;;;;;0.09;90.07;96673.97;5012327;28;20050;-62
2022/01/20 05:17:03;;;;;;;49.45;24.05;;;;;;;0.05;90.22;96674.09;5012189;28;20096;-62
2022/01/20 05:19:30;;;;;;;49.92;25.83;;;;;;;-0.03;90.94;96677.81;5012597;28;20125;-62
2022/01/20 05:21:56;;;;;;;29.70;19.35;;;;;;;-0.15;92.04;96675.63;5011623;28;20033;-62
2022/01/20 05:24:24;;;;;;;31.95;19.60;;;;;;;-0.20;93.08;96672.38;5012177;28;20104;-62
2022/01/20 05:26:51;;;;;;;30.45;19.48;;;;;;;-0.31;93.44;96675.31;5011014;28;20067;-62
2022/01/20 05:29:17;;;;;;;29.80;20.05;;;;;;;-0.39;94.19;96672.13;5012385;28;20025;-62
2022/01/20 05:31:43;;;;;;;33.65;18.83;;;;;;;-0.46;94.29;96666.31;5012053;28;20481;-62
2022/01/20 05:34:08;;;;;;;26.10;17.75;;;;;;;-0.51;94.61;96663.03;5012455;28;20022;-62
2022/01/20 05:36:34;;;;;;;25.02;15.88;;;;;;;-0.52;94.46;96672.53;5012103;28;20448;-62
2022/01/20 05:38:59;;;;;;;16.27;13.73;;;;;;;-0.53;94.67;96675.19;5011896;28;20030;-62
2022/01/20 05:41:25;;;;;;;12.30;11.00;;;;;;;-0.53;94.35;96675.19;5012378;28;20052;-62
2022/01/20 05:43:50;;;;;;;12.10;10.88;;;;;;;-0.49;94.29;96676.75;5011933;28;20511;-62
2022/01/20 05:46:18;;;;;;;13.52;12.20;;;;;;;-0.58;94.23;96678.72;5011942;28;20120;-62
2022/01/20 05:48:47;;;;;;;15.27;13.68;;;;;;;-0.58;93.96;96683.91;5011835;28;20063;-62
2022/01/20 05:51:13;;;;;;;17.83;14.50;;;;;;;-0.66;94.18;96680.72;5003468;28;20030;-62
2022/01/20 05:53:39;;;;;;;18.27;14.85;;;;;;;-0.79;94.49;96690.63;5010999;28;20026;-62
2022/01/20 05:56:05;;;;;;;18.98;15.38;;;;;;;-0.88;95.63;96689.16;5011977;28;20030;-62
2022/01/20 05:58:30;;;;;;;17.85;14.82;;;;;;;-0.97;96.98;96694.63;5011786;28;20065;-62
2022/01/20 06:00:56;;;;;;;16.23;13.35;;;;;;;-1.01;97.53;96685.25;5011609;28;20030;-62
2022/01/20 06:03:37;;;;;;;12.90;11.60;;;;;;;-1.03;97.88;96687.03;5014098;28;20038;-61
2022/01/20 06:06:07;;;;;;;12.70;11.40;;;;;;;-1.00;97.42;96694.69;5012056;28;20038;-62
2022/01/20 06:08:34;;;;;;;12.43;11.00;;;;;;;-0.95;97.45;96697.16;5011395;28;20405;-60
2022/01/20 06:11:00;;;;;;;13.90;12.50;;;;;;;-0.87;96.45;96690.03;5011500;28;20026;-62
2022/01/20 06:13:26;;;;;;;15.05;12.98;;;;;;;-0.79;95.30;96693.19;5011682;28;20059;-62
2022/01/20 06:15:52;;;;;;;15.30;13.20;;;;;;;-0.77;95.90;96704.34;5011525;28;20026;-62
2022/01/20 06:18:17;;;;;;;17.88;13.05;;;;;;;-0.74;95.51;96709.41;5011028;28;20053;-62
2022/01/20 06:20:43;;;;;;;16.27;13.82;;;;;;;-0.78;96.82;96706.97;5010884;28;20036;-62
2022/01/20 06:23:10;;;;;;;19.30;15.45;;;;;;;-0.80;96.74;96719.09;5011147;28;20034;-62
2022/01/20 06:25:36;;;;;;;18.38;14.70;;;;;;;-0.82;96.76;96720.88;5011216;28;20034;-61
2022/01/20 06:28:02;;;;;;;18.13;14.45;;;;;;;-0.84;97.13;96713.19;5007498;28;20033;-62
2022/01/20 06:30:29;;;;;;;13.88;11.85;;;;;;;-0.88;97.56;96715.00;5009897;28;20038;-61
2022/01/20 06:32:55;;;;;;;13.77;11.65;;;;;;;-0.92;97.58;96718.59;5011189;28;20030;-62
2022/01/20 06:35:21;;;;;;;13.52;12.13;;;;;;;-0.95;97.64;96710.06;5006696;28;20160;-62
2022/01/20 06:37:46;;;;;;;16.08;12.93;;;;;;;-0.96;97.61;96701.47;5011017;28;20524;-61
2022/01/20 06:40:12;;;;;;;14.55;13.05;;;;;;;-1.01;98.12;96700.75;5011045;28;20482;-61
2022/01/20 06:42:38;;;;;;;15.88;13.23;;;;;;;-1.08;98.06;96700.13;5010993;28;20041;-62
2022/01/20 06:45:09;;;;;;;14.35;13.00;;;;;;;-1.12;97.77;96693.31;5008521;28;20116;-61
2022/01/20 06:47:35;;;;;;;12.70;11.45;;;;;;;-1.10;97.80;96696.72;5010413;28;20187;-60
2022/01/20 06:50:01;;;;;;;13.75;12.35;;;;;;;-1.12;97.90;96700.25;5008808;28;20112;-61
2022/01/20 06:52:28;;;;;;;15.27;13.25;;;;;;;-1.13;97.68;96699.38;5009088;28;20604;-61
2022/01/20 06:54:53;;;;;;;14.20;12.05;;;;;;;-1.13;97.50;96690.78;5011405;28;20069;-61
2022/01/20 06:57:19;;;;;;;14.20;12.70;;;;;;;-1.11;98.30;96689.00;5014537;28;20109;-60
2022/01/20 06:59:44;;;;;;;14.68;12.25;;;;;;;-1.12;98.11;96687.31;5014935;28;20025;-58
2022/01/20 07:02:10;;;;;;;14.20;12.70;;;;;;;-1.10;97.94;96680.38;5015324;28;20115;-61
2022/01/20 07:04:37;;;;;;;13.50;12.27;;;;;;;-1.12;98.12;96682.16;5011933;28;20041;-60
2022/01/20 07:07:02;;;;;;;14.35;12.85;;;;;;;-1.12;97.98;96676.97;5012959;28;20036;-60
2022/01/20 07:09:28;;;;;;;14.82;12.93;;;;;;;-1.11;98.36;96679.50;5014526;28;20018;-61
2022/01/20 07:11:53;;;;;;;15.88;12.82;;;;;;;-1.07;97.55;96677.69;5014592;28;20465;-61
2022/01/20 07:14:19;;;;;;;16.52;14.27;;;;;;;-1.10;98.03;96676.06;5014788;28;20028;-61
2022/01/20 07:16:45;;;;;;;17.10;13.15;;;;;;;-1.09;97.63;96679.47;5014760;28;20026;-60
2022/01/20 07:19:11;;;;;;;15.55;13.82;;;;;;;-1.24;98.21;96673.84;5014685;28;20045;-60
2022/01/20 07:21:36;;;;;;;16.33;14.68;;;;;;;-1.34;98.81;96677.63;5014262;28;20030;-60
2022/01/20 07:24:02;;;;;;;18.77;14.38;;;;;;;-0.99;97.13;96680.91;5013550;28;20045;-61
2022/01/20 07:26:27;;;;;;;16.73;14.80;;;;;;;-1.14;97.27;96687.34;5013862;28;20034;-61
2022/01/20 07:28:52;;;;;;;17.08;15.07;;;;;;;-1.31;98.57;96691.31;5014521;28;20033;-60
2022/01/20 07:31:22;;;;;;;19.80;17.02;;;;;;;-1.43;98.98;96686.47;5013982;28;20053;-59
2022/01/20 07:33:48;;;;;;;20.65;18.48;;;;;;;-1.54;99.06;96697.09;5014192;28;20033;-58
2022/01/20 07:36:13;;;;;;;18.88;16.40;;;;;;;-1.57;99.99;96702.38;5014272;28;20026;-58
2022/01/20 07:38:39;;;;;;;19.35;17.23;;;;;;;-1.56;99.93;96711.81;5014274;28;20108;-57
2022/01/20 07:41:04;;;;;;;20.90;17.25;;;;;;;-1.63;99.69;96699.97;5014233;28;20104;-59
2022/01/20 07:43:30;;;;;;;19.02;16.90;;;;;;;-1.67;100.00;96690.56;5010120;28;20022;-59
2022/01/20 07:45:56;;;;;;;19.55;17.45;;;;;;;-1.70;100.00;96694.09;5013261;28;20406;-58
2022/01/20 07:48:21;;;;;;;19.08;17.13;;;;;;;-1.75;100.00;96690.81;5013970;28;20409;-58
2022/01/20 07:50:47;;;;;;;16.80;14.98;;;;;;;-1.79;100.00;96692.63;5014016;28;20532;-58
2022/01/20 07:53:12;;;;;;;17.85;15.40;;;;;;;-1.81;100.00;96699.56;5012695;28;20034;-59
2022/01/20 07:55:38;;;;;;;17.88;15.38;;;;;;;-1.80;100.00;96696.09;5013119;28;20030;-60
2022/01/20 07:58:05;;;;;;;19.25;17.08;;;;;;;-1.77;100.00;96697.72;5010543;28;20109;-58
2022/01/20 08:00:30;;;;;;;19.00;16.42;;;;;;;-1.71;99.57;96695.00;5012712;28;20030;-58
2022/01/20 08:02:55;;;;;;;27.25;24.00;;;;;;;-1.75;100.00;96688.22;5013322;28;20503;-59
2022/01/20 08:05:21;;;;;;;24.10;20.90;;;;;;;-1.80;100.00;96690.06;5011712;28;20053;-58
2022/01/20 08:07:48;;;;;;;21.65;19.35;;;;;;;-1.85;100.00;96687.63;5012540;28;20022;-56
2022/01/20 08:10:13;;;;;;;26.83;20.23;;;;;;;-1.85;100.00;96687.63;5014637;28;20018;-58
2022/01/20 08:12:40;;;;;;;21.02;18.92;;;;;;;-1.83;100.00;96687.56;5011734;28;20390;-58
2022/01/20 08:15:09;;;;;;;28.27;22.70;;;;;;;-1.82;100.00;96679.78;5013263;28;20038;-59
2022/01/20 08:17:35;;;;;;;25.85;21.83;;;;;;;-1.79;100.00;96679.72;5012418;28;20045;-58
2022/01/20 08:20:00;;;;;;;24.38;20.27;;;;;;;-1.75;100.00;96676.16;5012980;28;20092;-58
2022/01/20 08:22:28;;;;;;;23.80;19.83;;;;;;;-1.76;100.00;96674.47;5012431;28;20037;-59
2022/01/20 08:24:54;;;;;;;18.20;15.50;;;;;;;-1.74;100.00;96675.25;5011042;28;20056;-58
2022/01/20 08:27:20;;;;;;;19.90;17.55;;;;;;;-1.71;100.00;96668.31;5012427;28;20513;-59
2022/01/20 08:29:46;;;;;;;19.50;17.50;;;;;;;-1.77;100.00;96670.19;5011369;28;20034;-58
2022/01/20 08:32:12;;;;;;;20.65;18.20;;;;;;;-1.83;100.00;96675.53;5013015;28;20105;-59
2022/01/20 08:34:37;;;;;;;24.27;20.17;;;;;;;-1.88;100.00;96675.63;5012640;28;20057;-59
2022/01/20 08:37:03;;;;;;;31.85;24.17;;;;;;;-1.90;100.00;96680.00;5012772;28;20034;-59
2022/01/20 08:42:04;;;;;;;32.60;27.67;;;;;;;-1.90;100.00;96674.84;5012449;28;20088;-57
2022/01/20 08:44:29;;;;;;;34.90;28.73;;;;;;;-1.91;100.00;96674.88;5013141;28;20034;-59
2022/01/20 08:46:57;;;;;;;36.95;28.80;;;;;;;-1.91;100.00;96669.69;5012448;28;20038;-59
2022/01/20 08:49:23;;;;;;;34.80;28.35;;;;;;;-1.90;100.00;96679.13;5013044;28;20029;-59
2022/01/20 08:51:49;;;;;;;35.65;29.90;;;;;;;-1.91;100.00;96674.88;5011800;28;20393;-59
2022/01/20 08:54:14;;;;;;;31.15;26.95;;;;;;;-1.93;100.00;96680.09;5011773;28;20021;-58
2022/01/20 08:56:41;;;;;;;34.92;28.50;;;;;;;-1.93;100.00;96685.25;5012497;28;20025;-58
2022/01/20 08:59:08;;;;;;;35.80;28.40;;;;;;;-1.92;100.00;96696.41;5013157;28;20029;-59
2022/01/20 09:01:35;;;;;;;35.78;29.15;;;;;;;-1.92;100.00;96696.41;5012331;28;20022;-59
2022/01/20 09:04:00;;;;;;;34.67;28.27;;;;;;;-1.90;100.00;96684.31;5013136;28;20064;-59
2022/01/20 09:06:26;;;;;;;31.60;27.70;;;;;;;-1.91;100.00;96693.78;5012771;28;20105;-59
2022/01/20 09:08:51;;;;;;;34.85;29.05;;;;;;;-1.92;100.00;96699.84;5013397;28;20029;-59
2022/01/20 09:11:22;;;;;;;39.22;28.85;;;;;;;-1.90;100.00;96694.63;5013036;28;20110;-59
2022/01/20 09:16:34;;;;;;;49.10;34.92;;;;;;;-1.85;100.00;96697.97;5012554;28;20080;-56
2022/01/20 09:18:59;;;;;;;64.85;41.38;;;;;;;-1.87;100.00;96689.41;5011569;28;20424;-58
2022/01/20 09:21:26;;;;;;;39.42;28.85;;;;;;;-1.88;100.00;96695.44;5012190;28;20113;-56
2022/01/20 09:23:51;;;;;;;39.42;29.50;;;;;;;-1.88;100.00;96690.28;5012293;28;20052;-59
2022/01/20 09:26:17;;;;;;;49.90;34.85;;;;;;;-1.51;100.00;96691.03;5027994;28;20025;-60
2022/01/20 09:28:43;;;;;;;74.82;41.92;;;;;;;-0.84;100.00;96684.75;5012759;28;20034;-60
2022/01/20 09:31:09;;;;;;;93.90;37.85;;;;;;;-0.18;98.19;96694.72;5012982;28;20089;-58
2022/01/20 09:33:35;;;;;;;37.85;26.48;;;;;;;0.33;95.45;96689.53;5012804;28;20056;-59
2022/01/20 09:36:01;;;;;;;57.85;26.20;;;;;;;0.78;91.88;96679.28;5012312;28;20482;-57
2022/01/20 09:38:28;;;;;;;38.42;21.17;;;;;;;1.32;88.88;96676.38;5012486;28;20034;-60
2022/01/20 09:40:54;;;;;;;18.67;14.27;;;;;;;1.94;85.36;96668.69;5012625;28;20022;-60
2022/01/20 09:43:20;;;;;;;18.50;14.73;;;;;;;2.36;82.64;96666.94;5011195;28;20021;-59
2022/01/20 09:45:50;;;;;;;24.48;16.58;;;;;;;2.61;81.73;96658.88;5011816;28;20564;-61
2022/01/20 09:48:16;;;;;;;15.82;11.88;;;;;;;2.67;77.67;96658.59;5012462;28;20026;-60
2022/01/20 09:50:42;;;;;;;9.98;8.98;;;;;;;2.78;77.06;96665.91;5011474;28;20378;-60
2022/01/20 09:53:07;;;;;;;12.50;8.95;;;;;;;2.84;78.05;96665.63;5011771;28;20033;-60
2022/01/20 09:55:35;;;;;;;9.18;8.27;;;;;;;3.06;78.03;96664.66;5011736;28;20412;-60
2022/01/20 09:58:01;;;;;;;10.20;8.82;;;;;;;3.28;75.91;96666.22;5012350;28;20022;-60
2022/01/20 10:00:27;;;;;;;7.88;7.07;;;;;;;3.28;75.66;96663.63;5012198;28;20116;-60
2022/01/20 10:02:56;;;;;;;8.55;7.63;;;;;;;3.36;77.34;96665.88;5011851;28;20056;-60
2022/01/20 10:05:32;;;;;;;7.95;6.80;;;;;;;3.46;75.25;96671.47;5012086;28;20049;-60
2022/01/20 10:08:13;;;;;;;8.10;7.38;;;;;;;3.61;76.07;96675.94;5012002;28;20034;-60
2022/01/20 10:11:00;;;;;;;7.57;6.82;;;;;;;3.56;75.08;96668.34;5011752;28;20033;-60
2022/01/20 10:13:31;;;;;;;8.90;8.10;;;;;;;3.65;76.12;96669.69;5012025;28;20057;-60
2022/01/20 10:16:13;;;;;;;16.13;13.77;;;;;;;3.70;75.32;96672.88;5011707;28;20405;-60
2022/01/20 10:18:46;;;;;;;21.90;17.70;;;;;;;3.67;74.96;96673.03;5011604;28;20501;-60
2022/01/20 10:21:12;;;;;;;9.95;9.00;;;;;;;3.79;75.38;96675.94;5012001;28;20033;-59
2022/01/20 10:23:43;;;;;;;8.85;7.90;;;;;;;3.83;74.77;96680.09;5011800;28;20033;-60
2022/01/20 10:26:21;;;;;;;10.00;9.10;;;;;;;3.80;75.48;96680.25;5011824;28;20033;-60
2022/01/20 10:28:55;;;;;;;9.63;8.63;;;;;;;3.92;74.96;96692.69;5009325;28;20053;-60
2022/01/20 10:31:42;;;;;;;10.38;9.38;;;;;;;3.86;73.42;96693.81;5010778;28;20382;-60
2022/01/20 10:34:31;;;;;;;20.85;13.68;;;;;;;3.96;73.44;96690.75;5011219;28;20053;-60
2022/01/20 10:37:04;;;;;;;17.00;12.50;;;;;;;4.09;71.31;96686.59;5008975;28;20445;-60
2022/01/20 10:39:37;;;;;;;10.95;9.15;;;;;;;4.30;72.81;96683.84;5010922;28;20029;-60
2022/01/20 10:42:15;;;;;;;9.73;8.65;;;;;;;4.64;72.58;96681.25;5011112;28;20037;-60
2022/01/20 10:44:43;;;;;;;18.23;12.93;;;;;;;4.92;71.88;96674.53;5010357;28;20025;-54
2022/01/20 10:47:17;;;;;;;9.02;8.13;;;;;;;4.95;69.64;96675.22;5010782;28;20417;-59
2022/01/20 10:49:44;;;;;;;8.50;7.60;;;;;;;5.05;69.67;96674.72;5009749;28;20026;-59
2022/01/20 10:52:11;;;;;;;7.05;6.45;;;;;;;4.96;67.38;96670.84;5010614;28;20517;-60
2022/01/20 10:54:48;;;;;;;7.07;6.38;;;;;;;4.98;67.51;96664.63;5010910;28;20026;-60
2022/01/20 10:57:16;;;;;;;6.32;5.72;;;;;;;4.88;66.93;96661.66;5004906;28;20083;-60
2022/01/20 11:00:06;;;;;;;6.72;6.13;;;;;;;4.89;66.36;96657.31;5010061;28;20036;-60
2022/01/20 11:02:33;;;;;;;6.70;6.10;;;;;;;4.84;66.43;96656.69;5008711;28;20030;-60
2022/01/20 11:04:59;;;;;;;6.65;6.03;;;;;;;4.87;66.10;96657.38;5008167;28;20030;-60
2022/01/20 11:07:25;;;;;;;5.63;5.22;;;;;;;5.05;66.49;96653.84;5009232;28;20030;-60
2022/01/20 11:09:59;;;;;;;5.80;5.30;;;;;;;4.98;65.78;96646.34;5009818;28;20516;-59
2022/01/20 11:12:25;;;;;;;5.70;5.13;;;;;;;5.25;65.71;96644.91;5010535;28;20033;-60
2022/01/20 11:14:55;;;;;;;6.13;5.65;;;;;;;5.66;64.75;96638.28;5009663;28;20026;-59
2022/01/20 11:17:25;;;;;;;5.60;5.13;;;;;;;5.75;64.06;96635.16;5010416;28;20115;-51
2022/01/20 11:19:51;;;;;;;12.88;11.13;;;;;;;5.82;63.99;96640.84;5010522;28;20152;-59
2022/01/20 11:22:19;;;;;;;13.70;11.30;;;;;;;5.99;63.73;96634.63;5010542;28;20065;-54
2022/01/20 11:24:57;;;;;;;12.63;10.73;;;;;;;6.10;62.10;96629.63;5009551;28;20405;-57
2022/01/20 11:27:38;;;;;;;13.55;11.63;;;;;;;6.05;63.35;96629.06;5008744;28;20484;-60
2022/01/20 11:30:14;;;;;;;9.18;7.63;;;;;;;5.95;62.67;96626.13;5010290;28;20124;-60
2022/01/20 11:32:40;;;;;;;8.63;7.55;;;;;;;6.02;63.40;96632.69;5010016;28;20096;-59
2022/01/20 11:35:08;;;;;;;8.43;6.88;;;;;;;5.84;63.08;96623.28;5009650;28;20101;-59
2022/01/20 11:37:38;;;;;;;5.97;5.47;;;;;;;6.08;62.87;96626.28;5010809;28;20109;-57
2022/01/20 11:40:19;;;;;;;12.77;9.85;;;;;;;6.09;61.34;96625.34;5011779;28;20524;-57
2022/01/20 11:43:08;;;;;;;7.20;5.97;;;;;;;6.26;61.14;96629.56;5014205;28;20026;-57
2022/01/20 11:45:40;;;;;;;6.65;6.05;;;;;;;6.68;60.84;96615.72;5010755;28;20416;-61
2022/01/20 11:48:20;;;;;;;7.65;6.95;;;;;;;6.48;59.78;96619.59;5012439;28;20217;-60
2022/01/20 11:50:48;;;;;;;8.57;7.53;;;;;;;6.24;60.95;96618.34;5011536;28;20681;-60
2022/01/20 11:53:20;;;;;;;7.13;6.20;;;;;;;6.07;61.44;96608.06;5010787;28;20032;-60
2022/01/20 11:55:51;;;;;;;7.03;6.30;;;;;;;6.24;59.82;96605.28;5011979;28;20034;-60
2022/01/20 11:58:22;;;;;;;12.55;9.13;;;;;;;5.91;61.42;96595.88;5012613;28;20034;-60
2022/01/20 12:01:01;;;;;;;16.23;9.45;;;;;;;5.97;62.40;96605.97;5012065;28;20079;-60
2022/01/20 12:03:27;;;;;;;27.85;15.38;;;;;;;6.20;61.17;96585.47;5011556;28;20050;-59
2022/01/20 12:06:08;;;;;;;12.10;9.30;;;;;;;6.45;59.62;96589.22;5012942;28;20033;-60
2022/01/20 12:08:34;;;;;;;14.57;9.65;;;;;;;6.37;59.49;96575.78;5012694;28;20029;-59
2022/01/20 12:11:00;;;;;;;18.05;11.50;;;;;;;6.09;60.52;96573.06;5012459;28;20026;-60
2022/01/20 12:13:26;;;;;;;15.57;10.30;;;;;;;5.86;60.34;96563.97;5011731;28;20457;-60
2022/01/20 12:15:57;;;;;;;21.27;11.60;;;;;;;5.55;61.15;96558.75;5012928;28;20117;-59
2022/01/20 12:18:22;;;;;;;9.55;8.55;;;;;;;5.51;61.35;96551.19;5012553;28;20041;-59
2022/01/20 12:20:48;;;;;;;8.82;7.90;;;;;;;5.33;62.04;96547.88;5010137;28;20033;-59
2022/01/20 12:23:13;;;;;;;10.90;8.25;;;;;;;5.35;62.12;96544.22;5012643;28;20029;-59
2022/01/20 12:25:39;;;;;;;11.23;8.43;;;;;;;5.13;62.16;96547.25;5012642;28;20476;-60
2022/01/20 12:28:10;;;;;;;17.90;13.27;;;;;;;5.29;63.60;96547.19;5012357;28;20030;-60
2022/01/20 12:30:39;;;;;;;31.63;15.80;;;;;;;5.24;63.65;96551.84;5011297;28;20064;-60
2022/01/20 12:33:14;;;;;;;18.92;11.70;;;;;;;5.41;64.45;96541.25;5011171;28;20048;-59